createdAt,value
2022-10-17T00:01:09.075Z,2.60
2022-10-17T00:03:38.336Z,2.30
2022-10-17T00:06:08.849Z,2.22
2022-10-17T00:08:37.899Z,2.27
2022-10-17T00:11:08.817Z,2.17
2022-10-17T00:13:37.257Z,2.33
2022-10-17T00:16:07.871Z,2.10
2022-10-17T00:18:36.101Z,2.33
2022-10-17T00:21:05.419Z,2.50
2022-10-17T00:23:34.487Z,2.13
2022-10-17T00:26:04.941Z,2.72
2022-10-17T00:28:33.357Z,2.53
2022-10-17T00:31:03.765Z,2.42
2022-10-17T00:33:34.911Z,2.30
2022-10-17T00:36:05.116Z,2.58
2022-10-17T00:38:33.609Z,3.03
2022-10-17T00:41:02.008Z,2.65
2022-10-17T00:43:30.751Z,2.90
2022-10-17T00:45:58.984Z,2.80
2022-10-17T00:48:27.213Z,3.30
2022-10-17T00:50:57.199Z,3.00
2022-10-17T00:53:27.203Z,3.05
2022-10-17T00:55:55.663Z,3.60
2022-10-17T00:58:23.883Z,3.27
2022-10-17T01:00:52.113Z,3.08
2022-10-17T01:03:20.516Z,3.40
2022-10-17T01:05:48.717Z,3.58
2022-10-17T01:08:17.909Z,3.65
2022-10-17T01:10:55.799Z,3.90
2022-10-17T01:13:31.067Z,3.50
2022-10-17T01:16:09.840Z,3.67
2022-10-17T01:18:47.137Z,3.65
2022-10-17T01:21:28.856Z,3.33
2022-10-17T01:24:26.003Z,3.80
2022-10-17T01:27:09.754Z,3.53
2022-10-17T01:30:05.721Z,3.60
2022-10-17T01:32:40.407Z,4.10
2022-10-17T01:35:13.047Z,3.60
2022-10-17T01:37:47.520Z,3.77
2022-10-17T01:40:21.642Z,3.60
2022-10-17T01:42:57.998Z,4.00
2022-10-17T01:45:32.291Z,3.85
2022-10-17T01:48:06.553Z,4.05
2022-10-17T01:50:38.283Z,3.90
2022-10-17T01:53:11.846Z,4.38
2022-10-17T01:55:44.089Z,4.35
2022-10-17T01:58:16.021Z,4.32
2022-10-17T02:00:47.718Z,4.85
2022-10-17T02:03:21.222Z,4.20
2022-10-17T02:05:49.548Z,4.47
2022-10-17T02:08:26.837Z,4.72
2022-10-17T02:10:59.168Z,4.53
2022-10-17T02:13:41.307Z,4.45
2022-10-17T02:16:21.647Z,4.70
2022-10-17T02:19:09.243Z,4.93
2022-10-17T02:21:46.149Z,4.80
2022-10-17T02:24:24.537Z,4.65
2022-10-17T02:26:57.504Z,4.65
2022-10-17T02:29:32.335Z,4.23
2022-10-17T02:32:05.622Z,5.30
2022-10-17T02:34:39.466Z,4.97
2022-10-17T02:37:09.506Z,4.65
2022-10-17T02:39:40.975Z,5.20
2022-10-17T02:42:13.034Z,5.53
2022-10-17T02:44:44.764Z,5.30
2022-10-17T02:47:21.115Z,5.30
2022-10-17T02:49:53.994Z,5.18
2022-10-17T02:52:28.638Z,5.15
2022-10-17T02:55:04.224Z,4.63
2022-10-17T02:57:36.882Z,5.13
2022-10-17T03:00:09.727Z,4.95
2022-10-17T03:02:42.200Z,5.15
2022-10-17T03:05:14.906Z,5.28
2022-10-17T03:07:42.623Z,5.23
2022-10-17T03:10:10.982Z,4.97
2022-10-17T03:12:39.361Z,5.22
2022-10-17T03:15:10.666Z,5.10
2022-10-17T03:17:38.816Z,5.97
2022-10-17T03:20:08.493Z,5.80
2022-10-17T03:22:37.652Z,6.10
2022-10-17T03:25:07.869Z,5.97
2022-10-17T03:27:37.412Z,5.80
2022-10-17T03:30:07.346Z,6.10
2022-10-17T03:32:36.803Z,6.53
2022-10-17T03:35:05.607Z,6.35
2022-10-17T03:37:33.366Z,6.15
2022-10-17T03:40:03.543Z,5.88
2022-10-17T03:42:32.890Z,6.20
2022-10-17T03:45:02.065Z,6.03
2022-10-17T03:47:30.368Z,6.80
2022-10-17T03:49:58.813Z,6.43
2022-10-17T03:52:26.613Z,7.20
2022-10-17T03:54:55.670Z,6.53
2022-10-17T03:57:24.765Z,7.00
2022-10-17T03:59:53.850Z,7.05
2022-10-17T04:02:22.914Z,7.97
2022-10-17T04:04:51.767Z,7.38
2022-10-17T04:07:20.137Z,6.45
2022-10-17T04:09:49.961Z,7.30
2022-10-17T04:12:20.913Z,6.80
2022-10-17T04:14:51.033Z,6.97
2022-10-17T04:17:18.767Z,6.30
2022-10-17T04:19:47.489Z,7.30
2022-10-17T04:22:19.056Z,6.57
2022-10-17T04:24:50.202Z,6.90
2022-10-17T04:27:37.198Z,7.25
2022-10-17T04:30:09.296Z,7.00
2022-10-17T04:32:39.614Z,6.63
2022-10-17T04:35:29.953Z,6.13
2022-10-17T04:38:04.968Z,6.30
2022-10-17T04:40:34.731Z,6.30
2022-10-17T04:43:03.822Z,6.80
2022-10-17T04:45:39.947Z,7.45
2022-10-17T04:48:10.006Z,6.40
2022-10-17T04:50:39.918Z,7.50
2022-10-17T04:53:26.885Z,6.97
2022-10-17T04:55:58.429Z,7.22
2022-10-17T04:58:29.650Z,6.82
2022-10-17T05:00:59.956Z,6.83
2022-10-17T05:03:32.030Z,6.70
2022-10-17T05:06:08.762Z,6.95
2022-10-17T05:08:48.730Z,6.82
2022-10-17T05:11:22.285Z,6.63
2022-10-17T05:13:57.966Z,6.67
2022-10-17T05:16:32.484Z,6.93
2022-10-17T05:19:05.624Z,7.32
2022-10-17T05:21:42.260Z,7.15
2022-10-17T05:24:15.099Z,6.82
2022-10-17T05:26:51.230Z,7.30
2022-10-17T05:29:23.807Z,6.60
2022-10-17T05:34:35.097Z,7.45
2022-10-17T05:37:05.692Z,6.93
2022-10-17T05:39:40.653Z,7.00
2022-10-17T05:42:21.932Z,7.18
2022-10-17T05:44:57.092Z,6.97
2022-10-17T05:47:28.767Z,6.82
2022-10-17T05:49:59.499Z,7.38
2022-10-17T05:52:37.013Z,7.33
2022-10-17T05:55:14.860Z,6.80
2022-10-17T05:57:46.836Z,6.72
2022-10-17T06:00:22.849Z,7.10
2022-10-17T06:03:06.147Z,7.22
2022-10-17T06:05:37.749Z,7.50
2022-10-17T06:08:11.321Z,6.75
2022-10-17T06:10:43.351Z,6.82
2022-10-17T06:13:28.438Z,7.55
2022-10-17T06:16:07.636Z,7.00
2022-10-17T06:18:46.337Z,6.90
2022-10-17T06:21:23.487Z,7.13
2022-10-17T06:24:01.431Z,6.90
2022-10-17T06:26:43.327Z,6.82
2022-10-17T06:29:21.747Z,6.40
2022-10-17T06:31:55.952Z,6.90
2022-10-17T06:34:29.711Z,7.13
2022-10-17T06:36:59.883Z,6.53
2022-10-17T06:39:33.703Z,6.80
2022-10-17T06:42:07.228Z,7.13
2022-10-17T06:45:00.912Z,6.70
2022-10-17T06:47:42.633Z,6.63
2022-10-17T06:50:27.029Z,7.32
2022-10-17T06:53:06.727Z,7.70
2022-10-17T06:55:53.052Z,6.68
2022-10-17T06:58:41.091Z,6.80
2022-10-17T07:01:16.268Z,6.90
2022-10-17T07:03:49.518Z,7.05
2022-10-17T07:06:19.348Z,7.63
2022-10-17T07:08:48.566Z,7.18
2022-10-17T07:11:20.971Z,7.13
2022-10-17T07:13:51.182Z,7.10
2022-10-17T07:16:19.172Z,6.75
2022-10-17T07:18:55.253Z,6.57
2022-10-17T07:21:24.733Z,7.50
2022-10-17T07:23:52.501Z,7.30
2022-10-17T07:26:21.406Z,7.43
2022-10-17T07:28:53.611Z,7.03
2022-10-17T07:31:36.744Z,6.95
2022-10-17T07:34:04.675Z,7.53
2022-10-17T07:36:33.974Z,6.93
2022-10-17T07:39:04.583Z,7.78
2022-10-17T07:41:33.609Z,7.43
2022-10-17T07:44:01.505Z,6.93
2022-10-17T07:46:35.147Z,7.32
2022-10-17T07:49:02.928Z,7.67
2022-10-17T07:51:30.648Z,7.20
2022-10-17T07:53:59.628Z,8.20
2022-10-17T07:56:29.481Z,8.15
2022-10-17T07:58:59.203Z,7.70
2022-10-17T08:01:29.325Z,6.80
2022-10-17T08:03:56.954Z,8.13
2022-10-17T08:06:25.118Z,7.57
2022-10-17T08:08:52.899Z,7.20
2022-10-17T08:11:23.432Z,8.35
2022-10-17T08:13:51.129Z,7.37
2022-10-17T08:16:18.842Z,7.95
2022-10-17T08:18:46.537Z,8.15
2022-10-17T08:21:14.268Z,6.93
2022-10-17T08:23:42.127Z,7.80
2022-10-17T08:26:13.203Z,7.43
2022-10-17T08:28:42.318Z,7.10
2022-10-17T08:31:12.511Z,8.00
2022-10-17T08:33:40.435Z,7.57
2022-10-17T08:36:09.408Z,7.45
2022-10-17T08:38:43.134Z,7.43
2022-10-17T08:41:16.470Z,7.22
2022-10-17T08:43:57.198Z,8.40
2022-10-17T08:46:31.554Z,7.07
2022-10-17T08:49:02.394Z,7.20
2022-10-17T08:51:34.601Z,7.37
2022-10-17T08:54:09.266Z,6.80
2022-10-17T08:56:48.972Z,7.00
2022-10-17T08:59:27.846Z,7.53
2022-10-17T09:02:01.632Z,6.72
2022-10-17T09:04:57.331Z,6.60
2022-10-17T09:07:32.584Z,6.85
2022-10-17T09:10:07.870Z,6.50
2022-10-17T09:12:42.406Z,6.45
2022-10-17T09:15:31.885Z,6.93
2022-10-17T09:18:03.420Z,6.43
2022-10-17T09:20:35.398Z,7.05
2022-10-17T09:23:10.061Z,6.90
2022-10-17T09:25:46.593Z,7.70
2022-10-17T09:28:18.284Z,7.00
2022-10-17T09:30:50.229Z,6.80
2022-10-17T09:33:42.253Z,7.40
2022-10-17T09:36:17.763Z,6.75
2022-10-17T09:38:49.136Z,7.10
2022-10-17T09:41:43.528Z,6.72
2022-10-17T09:44:18.396Z,6.40
2022-10-17T09:46:58.743Z,7.15
2022-10-17T09:49:32.747Z,5.80
2022-10-17T09:52:01.687Z,5.63
2022-10-17T09:54:34.925Z,5.50
2022-10-17T09:57:05.949Z,5.13
2022-10-17T09:59:36.085Z,4.55
2022-10-17T10:02:21.484Z,4.43
2022-10-17T10:05:04.696Z,3.75
2022-10-17T10:07:36.251Z,4.05
2022-10-17T10:10:07.028Z,3.60
2022-10-17T10:12:37.230Z,3.58
2022-10-17T10:15:34.528Z,4.07
2022-10-17T10:18:03.733Z,4.53
2022-10-17T10:20:35.048Z,2.90
2022-10-17T10:23:14.080Z,2.70
2022-10-17T10:25:53.726Z,3.00
2022-10-17T10:28:23.846Z,2.65
2022-10-17T10:30:53.316Z,2.53
2022-10-17T10:33:24.572Z,2.80
2022-10-17T10:36:03.396Z,2.60
2022-10-17T10:38:32.886Z,2.78
2022-10-17T10:41:05.134Z,2.55
2022-10-17T10:43:37.680Z,2.60
2022-10-17T10:46:07.444Z,2.90
2022-10-17T10:48:37.862Z,2.50
2022-10-17T10:51:09.072Z,2.75
2022-10-17T10:53:48.028Z,3.22
2022-10-17T10:56:22.206Z,2.90
2022-10-17T10:58:55.865Z,3.63
2022-10-17T11:01:30.312Z,3.10
2022-10-17T11:04:14.468Z,3.50
2022-10-17T11:06:45.113Z,3.40
2022-10-17T11:09:20.792Z,2.95
2022-10-17T11:11:54.680Z,3.03
2022-10-17T11:14:33.860Z,3.07
2022-10-17T11:17:09.810Z,3.53
2022-10-17T11:19:45.628Z,3.08
2022-10-17T11:22:17.408Z,3.63
2022-10-17T11:24:56.787Z,3.40
2022-10-17T11:27:25.875Z,2.80
2022-10-17T11:29:53.530Z,3.13
2022-10-17T11:32:26.973Z,2.95
2022-10-17T11:35:01.368Z,2.78
2022-10-17T11:37:32.138Z,3.30
2022-10-17T11:40:03.913Z,3.17
2022-10-17T11:42:35.820Z,2.88
2022-10-17T11:45:10.002Z,3.63
2022-10-17T11:47:47.762Z,2.80
2022-10-17T11:53:17.052Z,2.43
2022-10-17T11:55:46.528Z,2.83
2022-10-17T11:58:26.735Z,3.20
2022-10-17T12:01:04.151Z,2.88
2022-10-17T12:03:43.866Z,2.50
2022-10-17T12:06:18.814Z,2.43
2022-10-17T12:08:54.621Z,2.53
2022-10-17T12:11:34.646Z,2.70
2022-10-17T12:14:05.774Z,3.08
2022-10-17T12:16:48.733Z,2.67
2022-10-17T12:19:35.332Z,3.13
2022-10-17T12:22:20.080Z,2.63
2022-10-17T12:24:56.476Z,2.80
2022-10-17T12:27:47.377Z,3.72
2022-10-17T12:30:21.745Z,3.70
2022-10-17T12:33:07.514Z,2.87
2022-10-17T12:35:38.272Z,2.83
2022-10-17T12:38:26.792Z,2.60
2022-10-17T12:40:59.857Z,2.70
2022-10-17T12:43:45.170Z,2.67
2022-10-17T12:46:13.552Z,2.27
2022-10-17T12:49:02.803Z,2.78
2022-10-17T12:51:35.639Z,2.83
2022-10-17T12:54:12.343Z,2.42
2022-10-17T12:56:42.830Z,2.47
2022-10-17T12:59:16.855Z,2.53
2022-10-17T13:01:48.499Z,2.42
2022-10-17T13:04:17.130Z,2.50
2022-10-17T13:06:48.069Z,2.40
2022-10-17T13:09:26.296Z,2.90
2022-10-17T13:11:55.538Z,2.57
2022-10-17T13:14:25.563Z,3.90
2022-10-17T13:16:55.034Z,2.70
2022-10-17T13:19:24.915Z,2.33
2022-10-17T13:21:55.948Z,2.45
2022-10-17T13:24:30.971Z,2.50
2022-10-17T13:26:59.575Z,2.40
2022-10-17T13:29:31.933Z,2.28
2022-10-17T13:32:01.473Z,2.88
2022-10-17T13:34:29.848Z,2.45
2022-10-17T13:36:59.698Z,2.60
2022-10-17T13:39:52.408Z,2.35
2022-10-17T13:42:24.963Z,2.30
2022-10-17T13:44:53.244Z,2.25
2022-10-17T13:47:25.806Z,2.88
2022-10-17T13:49:55.522Z,2.63
2022-10-17T13:52:27.428Z,2.50
2022-10-17T13:55:08.431Z,2.30
2022-10-17T13:57:36.188Z,2.60
2022-10-17T14:00:11.391Z,2.30
2022-10-17T14:02:42.844Z,2.30
2022-10-17T14:05:18.792Z,2.30
2022-10-17T14:08:10.847Z,2.10
2022-10-17T14:10:42.236Z,2.42
2022-10-17T14:13:22.138Z,2.35
2022-10-17T14:15:50.780Z,2.23
2022-10-17T14:18:21.455Z,2.17
2022-10-17T14:21:32.189Z,2.53
2022-10-17T14:23:40.997Z,2.17
2022-10-17T14:26:18.231Z,2.35
2022-10-17T14:28:48.412Z,2.53
2022-10-17T14:31:25.487Z,2.17
2022-10-17T14:33:54.902Z,2.53
2022-10-17T14:36:32.602Z,1.98
2022-10-17T14:39:01.847Z,2.20
2022-10-17T14:41:43.546Z,2.13
2022-10-17T14:44:20.559Z,2.10
2022-10-17T14:46:51.124Z,1.83
2022-10-17T14:49:25.148Z,2.10
2022-10-17T14:52:28.202Z,2.15
2022-10-17T14:54:57.259Z,1.80
2022-10-17T14:57:29.761Z,2.10
2022-10-17T14:59:58.033Z,1.75
2022-10-17T15:02:27.035Z,1.67
2022-10-17T15:04:55.183Z,1.40
2022-10-17T15:07:23.565Z,2.03
2022-10-17T15:09:53.606Z,1.80
2022-10-17T15:12:25.302Z,2.08
2022-10-17T15:14:55.126Z,1.77
2022-10-17T15:17:27.071Z,1.80
2022-10-17T15:19:55.518Z,1.80
2022-10-17T15:22:23.944Z,1.83
2022-10-17T15:24:51.865Z,1.85
2022-10-17T15:27:22.238Z,2.33
2022-10-17T15:29:50.519Z,2.00
2022-10-17T15:32:19.790Z,2.20
2022-10-17T15:34:47.558Z,2.53
2022-10-17T15:37:20.725Z,2.03
2022-10-17T15:39:52.906Z,2.30
2022-10-17T15:42:21.617Z,2.00
2022-10-17T15:44:52.535Z,2.20
2022-10-17T15:47:25.647Z,1.58
2022-10-17T15:49:53.513Z,2.22
2022-10-17T15:52:21.634Z,2.35
2022-10-17T15:54:49.405Z,2.30
2022-10-17T15:57:19.694Z,1.97
2022-10-17T15:59:51.278Z,1.92
2022-10-17T16:02:20.482Z,2.33
2022-10-17T16:04:51.896Z,1.85
2022-10-17T16:07:20.137Z,2.45
2022-10-17T16:09:48.097Z,1.70
2022-10-17T16:12:18.427Z,2.30
2022-10-17T16:14:46.443Z,2.10
2022-10-17T16:17:15.453Z,2.53
2022-10-17T16:19:43.970Z,2.30
2022-10-17T16:22:21.843Z,2.73
2022-10-17T16:24:49.591Z,2.20
2022-10-17T16:27:17.244Z,2.53
2022-10-17T16:29:44.955Z,2.33
2022-10-17T16:32:12.627Z,2.35
2022-10-17T16:34:40.268Z,2.10
2022-10-17T16:37:07.950Z,2.22
2022-10-17T16:39:37.010Z,2.50
2022-10-17T16:42:04.889Z,2.47
2022-10-17T16:44:32.737Z,2.70
2022-10-17T16:47:00.644Z,2.57
2022-10-17T16:49:30.001Z,3.35
2022-10-17T16:51:57.727Z,2.75
2022-10-17T16:54:25.575Z,2.05
2022-10-17T16:56:54.633Z,2.70
2022-10-17T16:59:22.312Z,2.50
2022-10-17T17:01:50.000Z,2.50
2022-10-17T17:04:17.723Z,2.65
2022-10-17T17:09:18.080Z,2.80
2022-10-17T17:11:45.781Z,2.60
2022-10-17T17:14:14.875Z,2.75
2022-10-17T17:16:43.292Z,2.70
2022-10-17T17:19:13.572Z,2.58
2022-10-17T17:21:43.102Z,2.50
2022-10-17T17:24:11.074Z,3.43
2022-10-17T17:26:39.021Z,2.63
2022-10-17T17:29:06.867Z,2.55
2022-10-17T17:31:38.219Z,2.63
2022-10-17T17:34:06.301Z,2.40
2022-10-17T17:36:36.315Z,2.13
2022-10-17T17:39:06.159Z,2.50
2022-10-17T17:41:34.504Z,2.78
2022-10-17T17:44:03.456Z,2.22
2022-10-17T17:46:31.343Z,2.42
2022-10-17T17:49:01.215Z,2.73
2022-10-17T17:51:29.658Z,3.00
2022-10-17T17:53:58.060Z,2.83
2022-10-17T17:56:27.754Z,2.45
2022-10-17T17:58:57.342Z,2.78
2022-10-17T18:01:27.459Z,2.53
2022-10-17T18:03:58.664Z,3.03
2022-10-17T18:06:28.957Z,2.45
2022-10-17T18:08:58.884Z,2.47
2022-10-17T18:11:27.636Z,2.55
2022-10-17T18:13:56.125Z,2.67
2022-10-17T18:16:23.884Z,2.67
2022-10-17T18:18:51.635Z,3.15
2022-10-17T18:21:19.823Z,2.60
2022-10-17T18:23:49.830Z,2.58
2022-10-17T18:26:17.554Z,2.50
2022-10-17T18:28:47.919Z,2.40
2022-10-17T18:31:19.100Z,2.45
2022-10-17T18:33:47.383Z,2.53
2022-10-17T18:36:16.186Z,2.75
2022-10-17T18:38:44.292Z,2.30
2022-10-17T18:41:15.358Z,2.58
2022-10-17T18:43:44.510Z,2.83
2022-10-17T18:46:15.229Z,2.25
2022-10-17T18:48:44.332Z,2.45
2022-10-17T18:51:12.631Z,2.30
2022-10-17T18:53:40.958Z,2.33
2022-10-17T18:56:08.918Z,2.95
2022-10-17T18:58:39.965Z,2.33
2022-10-17T19:01:09.734Z,2.33
2022-10-17T19:03:37.717Z,1.70
2022-10-17T19:06:08.722Z,2.17
2022-10-17T19:08:37.144Z,2.00
2022-10-17T19:11:08.706Z,1.70
2022-10-17T19:13:38.015Z,1.70
2022-10-17T19:16:07.671Z,1.87
2022-10-17T19:18:36.023Z,1.60
2022-10-17T19:21:04.388Z,2.00
2022-10-17T19:23:32.618Z,2.13
2022-10-17T19:26:03.903Z,1.73
2022-10-17T19:28:31.669Z,1.90
2022-10-17T19:31:01.205Z,2.45
2022-10-17T19:36:03.348Z,2.10
2022-10-17T19:38:30.986Z,1.70
2022-10-17T19:43:31.256Z,1.70
2022-10-17T19:46:01.706Z,1.80
2022-10-17T19:48:32.457Z,1.75
2022-10-17T19:51:00.608Z,1.70
2022-10-17T19:53:29.404Z,1.80
2022-10-17T19:55:57.853Z,1.80
2022-10-17T19:58:26.077Z,1.95
2022-10-17T20:00:57.615Z,1.85
2022-10-17T20:03:26.657Z,2.47
2022-10-17T20:05:54.476Z,1.80
2022-10-17T20:08:22.544Z,1.60
2022-10-17T20:10:50.293Z,2.42
2022-10-17T20:13:17.968Z,1.77
2022-10-17T20:15:54.770Z,2.28
2022-10-17T20:18:22.973Z,2.73
2022-10-17T20:20:51.947Z,1.70
2022-10-17T20:23:19.758Z,1.70
2022-10-17T20:25:47.793Z,1.60
2022-10-17T20:28:16.581Z,2.03
2022-10-17T20:30:46.333Z,1.97
2022-10-17T20:33:15.589Z,2.10
2022-10-17T20:38:17.830Z,2.17
2022-10-17T20:40:45.821Z,2.20
2022-10-17T20:43:14.424Z,2.00
2022-10-17T20:45:50.868Z,1.88
2022-10-17T20:48:19.648Z,2.00
2022-10-17T20:50:47.296Z,2.28
2022-10-17T20:53:36.006Z,2.20
2022-10-17T20:56:06.154Z,1.77
2022-10-17T20:58:34.255Z,2.25
2022-10-17T21:01:07.136Z,2.20
2022-10-17T21:03:37.114Z,1.88
2022-10-17T21:06:08.842Z,1.85
2022-10-17T21:08:36.585Z,2.00
2022-10-17T21:11:10.507Z,1.80
2022-10-17T21:13:38.521Z,1.95
2022-10-17T21:16:10.728Z,1.60
2022-10-17T21:18:38.936Z,1.70
2022-10-17T21:21:12.142Z,1.80
2022-10-17T21:23:41.015Z,2.10
2022-10-17T21:26:12.421Z,1.60
2022-10-17T21:28:40.821Z,1.90
2022-10-17T21:31:13.354Z,1.90
2022-10-17T21:33:41.983Z,2.20
2022-10-17T21:36:10.577Z,2.58
2022-10-17T21:38:39.545Z,2.30
2022-10-17T21:41:09.052Z,2.53
2022-10-17T21:43:39.110Z,2.20
2022-10-17T21:46:08.545Z,2.43
2022-10-17T21:48:36.890Z,2.25
2022-10-17T21:51:06.238Z,2.28
2022-10-17T21:53:34.668Z,2.70
2022-10-17T21:56:03.709Z,2.67
2022-10-17T21:58:32.197Z,2.97
2022-10-17T22:01:10.281Z,2.70
2022-10-17T22:03:44.057Z,2.90
2022-10-17T22:09:04.538Z,3.00
2022-10-17T22:11:34.833Z,2.90
2022-10-17T22:14:05.010Z,2.65
2022-10-17T22:16:35.100Z,2.75
2022-10-17T22:19:06.406Z,3.08
2022-10-17T22:21:35.580Z,3.10
2022-10-17T22:24:06.402Z,3.00
2022-10-17T22:26:36.122Z,3.10
2022-10-17T22:29:04.969Z,2.95
2022-10-17T22:31:34.482Z,4.13
2022-10-17T22:34:03.557Z,3.30
2022-10-17T22:36:33.216Z,3.50
2022-10-17T22:39:01.033Z,3.58
2022-10-17T22:41:28.690Z,3.30
2022-10-17T22:43:56.333Z,3.38
2022-10-17T22:46:24.141Z,3.85
2022-10-17T22:48:53.212Z,3.70
2022-10-17T22:51:21.083Z,3.95
2022-10-17T22:53:48.899Z,4.32
2022-10-17T22:56:19.853Z,4.43
2022-10-17T22:58:48.149Z,4.50
2022-10-17T23:01:22.185Z,4.70
2022-10-17T23:03:50.420Z,4.60
2022-10-17T23:06:19.819Z,4.72
2022-10-17T23:08:47.497Z,5.22
2022-10-17T23:11:15.574Z,5.10
2022-10-17T23:13:43.243Z,4.67
2022-10-17T23:16:11.197Z,4.43
2022-10-17T23:18:39.444Z,4.47
2022-10-17T23:21:08.282Z,3.90
2022-10-17T23:23:37.644Z,3.88
2022-10-17T23:26:06.623Z,3.77
2022-10-17T23:28:35.577Z,4.18
2022-10-17T23:31:15.108Z,3.97
2022-10-17T23:33:44.754Z,4.15
2022-10-17T23:36:14.071Z,3.97
2022-10-17T23:38:44.680Z,4.30
2022-10-17T23:41:12.757Z,4.65
2022-10-17T23:43:40.745Z,5.13
2022-10-17T23:46:09.363Z,4.28
2022-10-17T23:48:38.534Z,4.18
2022-10-17T23:51:06.966Z,4.63
2022-10-17T23:53:34.816Z,5.78
2022-10-17T23:56:03.898Z,4.38
2022-10-17T23:58:32.039Z,4.60
